createdAt,value
2023-05-13T00:00:28.517Z,13.08
2023-05-13T00:02:55.123Z,13.09
2023-05-13T00:05:21.774Z,13.09
2023-05-13T00:07:48.355Z,13.03
2023-05-13T00:10:16.461Z,13.05
2023-05-13T00:12:46.576Z,13.05
2023-05-13T00:15:13.481Z,13.00
2023-05-13T00:17:43.305Z,13.01
2023-05-13T00:20:13.347Z,12.96
2023-05-13T00:22:42.702Z,12.94
2023-05-13T00:25:09.488Z,12.95
2023-05-13T00:27:35.980Z,12.95
2023-05-13T00:30:02.696Z,13.02
2023-05-13T00:32:29.268Z,13.00
2023-05-13T00:34:55.852Z,12.98
2023-05-13T00:37:22.352Z,12.89
2023-05-13T00:39:48.852Z,12.78
2023-05-13T00:42:19.668Z,12.71
2023-05-13T00:44:46.553Z,12.69
2023-05-13T00:47:13.197Z,12.66
2023-05-13T00:49:39.821Z,12.78
2023-05-13T00:52:06.533Z,12.73
2023-05-13T00:54:35.145Z,12.77
2023-05-13T00:57:04.788Z,12.79
2023-05-13T00:59:34.497Z,12.78
2023-05-13T01:02:26.123Z,12.80
2023-05-13T01:05:09.706Z,12.81
2023-05-13T01:08:02.874Z,12.80
2023-05-13T01:10:51.275Z,12.48
2023-05-13T01:13:24.877Z,12.46
2023-05-13T01:16:12.954Z,12.51
2023-05-13T01:18:52.708Z,12.55
2023-05-13T01:21:26.595Z,12.53
2023-05-13T01:23:53.173Z,12.36
2023-05-13T01:26:20.924Z,12.29
2023-05-13T01:28:50.076Z,12.35
2023-05-13T01:31:21.010Z,12.36
2023-05-13T01:33:48.740Z,12.42
2023-05-13T01:36:15.669Z,12.51
2023-05-13T01:38:43.638Z,12.53
2023-05-13T01:41:10.089Z,12.48
2023-05-13T01:43:36.593Z,12.49
2023-05-13T01:46:03.276Z,12.42
2023-05-13T01:48:29.829Z,12.39
2023-05-13T01:50:56.404Z,12.35
2023-05-13T01:53:22.847Z,12.32
2023-05-13T01:55:49.330Z,12.27
2023-05-13T01:58:15.792Z,12.29
2023-05-13T02:00:42.397Z,12.32
2023-05-13T02:03:09.055Z,12.31
2023-05-13T02:05:35.745Z,12.28
2023-05-13T02:08:02.401Z,12.23
2023-05-13T02:10:28.879Z,12.23
2023-05-13T02:12:55.313Z,12.19
2023-05-13T02:15:21.788Z,12.23
2023-05-13T02:17:48.299Z,12.22
2023-05-13T02:20:15.278Z,12.17
2023-05-13T02:22:41.866Z,12.15
2023-05-13T02:25:08.880Z,12.15
2023-05-13T02:27:35.356Z,12.12
2023-05-13T02:30:02.018Z,11.96
2023-05-13T02:32:28.614Z,11.93
2023-05-13T02:34:55.130Z,11.92
2023-05-13T02:37:21.562Z,11.94
2023-05-13T02:39:48.118Z,11.93
2023-05-13T02:42:14.615Z,11.92
2023-05-13T02:44:41.410Z,11.95
2023-05-13T02:47:10.957Z,11.98
2023-05-13T02:49:37.421Z,11.98
2023-05-13T02:52:04.086Z,11.96
2023-05-13T02:54:30.535Z,11.85
2023-05-13T02:56:57.023Z,11.88
2023-05-13T02:59:23.516Z,11.86
2023-05-13T03:01:50.224Z,11.86
2023-05-13T03:04:16.779Z,11.82
2023-05-13T03:06:43.280Z,11.74
2023-05-13T03:09:09.720Z,11.75
2023-05-13T03:11:36.212Z,11.75
2023-05-13T03:14:02.679Z,11.73
2023-05-13T03:16:29.211Z,11.71
2023-05-13T03:18:55.754Z,11.70
2023-05-13T03:21:22.410Z,11.70
2023-05-13T03:23:49.041Z,11.74
2023-05-13T03:26:16.508Z,11.80
2023-05-13T03:28:42.981Z,11.82
2023-05-13T03:31:09.654Z,11.81
2023-05-13T03:33:36.147Z,11.67
2023-05-13T03:36:02.702Z,11.72
2023-05-13T03:38:29.170Z,11.72
2023-05-13T03:40:55.672Z,11.73
2023-05-13T03:43:22.239Z,11.74
2023-05-13T03:45:50.516Z,11.68
2023-05-13T03:48:17.670Z,11.61
2023-05-13T03:50:44.296Z,11.57
2023-05-13T03:53:11.462Z,11.46
2023-05-13T03:55:38.034Z,11.39
2023-05-13T03:58:22.917Z,11.54
2023-05-13T04:00:49.591Z,11.51
2023-05-13T04:03:17.195Z,11.52
2023-05-13T04:05:47.881Z,11.58
2023-05-13T04:08:14.777Z,11.53
2023-05-13T04:10:41.285Z,11.43
2023-05-13T04:13:08.992Z,11.45
2023-05-13T04:15:38.171Z,11.56
2023-05-13T04:18:04.719Z,11.58
2023-05-13T04:20:31.163Z,11.64
2023-05-13T04:22:57.679Z,11.57
2023-05-13T04:25:24.255Z,11.58
2023-05-13T04:27:50.865Z,11.61
2023-05-13T04:30:17.416Z,11.60
2023-05-13T04:32:44.212Z,11.72
2023-05-13T04:35:14.281Z,11.84
2023-05-13T04:37:40.816Z,11.99
2023-05-13T04:40:08.363Z,12.12
2023-05-13T04:42:35.022Z,12.13
2023-05-13T04:45:01.574Z,12.08
2023-05-13T04:47:28.081Z,12.14
2023-05-13T04:49:54.628Z,12.18
2023-05-13T04:52:21.533Z,12.35
2023-05-13T04:54:47.972Z,12.41
2023-05-13T04:57:14.492Z,12.67
2023-05-13T04:59:41.064Z,12.90
2023-05-13T05:02:07.604Z,13.10
2023-05-13T05:04:34.125Z,13.28
2023-05-13T05:07:00.691Z,13.28
2023-05-13T05:09:27.184Z,13.22
2023-05-13T05:11:53.680Z,13.36
2023-05-13T05:14:20.651Z,13.42
2023-05-13T05:16:47.192Z,13.41
2023-05-13T05:19:13.783Z,13.37
2023-05-13T05:21:40.298Z,13.42
2023-05-13T05:24:07.045Z,13.43
2023-05-13T05:26:33.706Z,13.40
2023-05-13T05:29:00.192Z,13.54
2023-05-13T05:31:27.540Z,13.59
2023-05-13T05:33:55.131Z,13.66
2023-05-13T05:36:21.711Z,13.73
2023-05-13T05:38:48.197Z,13.78
2023-05-13T05:41:14.658Z,13.80
2023-05-13T05:43:41.220Z,13.84
2023-05-13T05:46:07.963Z,13.87
2023-05-13T05:48:34.867Z,13.93
2023-05-13T05:51:01.488Z,14.04
2023-05-13T05:53:28.153Z,13.97
2023-05-13T05:55:54.658Z,13.86
2023-05-13T05:58:21.208Z,13.99
2023-05-13T06:00:47.793Z,14.19
2023-05-13T06:03:14.542Z,14.30
2023-05-13T06:05:41.117Z,14.34
2023-05-13T06:08:07.588Z,14.37
2023-05-13T06:10:34.065Z,14.32
2023-05-13T06:13:00.726Z,14.19
2023-05-13T06:15:27.210Z,14.17
2023-05-13T06:17:53.776Z,14.17
2023-05-13T06:20:20.534Z,14.21
2023-05-13T06:22:48.077Z,14.39
2023-05-13T06:25:14.610Z,14.40
2023-05-13T06:27:41.135Z,14.33
2023-05-13T06:30:08.081Z,14.25
2023-05-13T06:32:34.634Z,14.20
2023-05-13T06:35:01.144Z,14.21
2023-05-13T06:37:27.677Z,14.18
2023-05-13T06:39:54.228Z,14.29
2023-05-13T06:42:20.719Z,14.30
2023-05-13T06:44:47.252Z,14.26
2023-05-13T06:47:16.091Z,14.25
2023-05-13T06:49:42.790Z,14.33
2023-05-13T06:52:09.944Z,14.42
2023-05-13T06:54:36.559Z,14.55
2023-05-13T06:57:05.636Z,14.56
2023-05-13T06:59:32.184Z,14.56
2023-05-13T07:01:58.727Z,14.60
2023-05-13T07:04:25.786Z,14.72
2023-05-13T07:06:52.296Z,14.72
2023-05-13T07:09:18.801Z,14.69
2023-05-13T07:11:45.225Z,14.66
2023-05-13T07:14:11.760Z,14.67
2023-05-13T07:16:38.294Z,14.61
2023-05-13T07:19:05.086Z,14.56
2023-05-13T07:21:31.760Z,14.50
2023-05-13T07:23:58.230Z,14.41
2023-05-13T07:26:24.717Z,14.43
2023-05-13T07:28:51.205Z,14.47
2023-05-13T07:31:17.784Z,14.55
2023-05-13T07:33:44.280Z,14.58
2023-05-13T07:36:10.786Z,14.68
2023-05-13T07:38:37.213Z,14.66
2023-05-13T07:41:03.751Z,14.65
2023-05-13T07:43:30.237Z,14.63
2023-05-13T07:45:56.704Z,14.65
2023-05-13T07:48:25.219Z,14.62
2023-05-13T07:50:51.779Z,14.65
2023-05-13T07:53:19.755Z,14.84
2023-05-13T07:55:46.586Z,15.12
2023-05-13T07:58:13.214Z,15.28
2023-05-13T08:00:39.802Z,15.16
2023-05-13T08:03:06.602Z,15.61
2023-05-13T08:05:33.145Z,15.78
2023-05-13T08:07:59.581Z,15.89
2023-05-13T08:10:26.075Z,15.95
2023-05-13T08:12:57.716Z,16.08
2023-05-13T08:15:25.410Z,16.36
2023-05-13T08:17:54.957Z,16.24
2023-05-13T08:20:23.077Z,16.37
2023-05-13T08:22:52.636Z,16.61
2023-05-13T08:25:19.514Z,16.89
2023-05-13T08:27:46.581Z,17.06
2023-05-13T08:30:13.755Z,17.22
2023-05-13T08:32:40.283Z,17.11
2023-05-13T08:35:07.102Z,17.28
2023-05-13T08:37:33.607Z,16.90
2023-05-13T08:40:01.612Z,17.13
2023-05-13T08:42:32.091Z,17.25
2023-05-13T08:45:04.817Z,17.45
2023-05-13T08:47:48.426Z,17.07
2023-05-13T08:50:15.085Z,17.03
2023-05-13T08:52:43.338Z,16.77
2023-05-13T08:55:10.125Z,17.20
2023-05-13T08:57:36.654Z,16.88
2023-05-13T09:00:05.003Z,17.02
2023-05-13T09:02:31.551Z,17.36
2023-05-13T09:05:04.619Z,17.49
2023-05-13T09:07:31.287Z,17.71
2023-05-13T09:09:58.048Z,17.89
2023-05-13T09:12:44.441Z,17.61
2023-05-13T09:15:12.924Z,17.37
2023-05-13T09:17:44.156Z,17.30
2023-05-13T09:20:12.482Z,17.77
2023-05-13T09:22:54.169Z,18.04
2023-05-13T09:25:24.410Z,18.31
2023-05-13T09:27:58.402Z,18.42
2023-05-13T09:30:28.300Z,18.54
2023-05-13T09:33:15.027Z,18.55
2023-05-13T09:35:45.444Z,18.86
2023-05-13T09:38:17.147Z,19.06
2023-05-13T09:40:56.915Z,19.06
2023-05-13T09:43:33.388Z,19.28
2023-05-13T09:46:08.935Z,19.29
2023-05-13T09:48:36.520Z,19.28
2023-05-13T09:51:03.176Z,19.28
2023-05-13T09:53:31.335Z,19.34
2023-05-13T09:56:00.048Z,19.53
2023-05-13T09:58:31.042Z,19.31
2023-05-13T10:00:58.173Z,19.19
2023-05-13T10:03:25.159Z,19.28
2023-05-13T10:05:53.564Z,19.45
2023-05-13T10:08:20.233Z,19.42
2023-05-13T10:10:49.566Z,19.40
2023-05-13T10:13:19.858Z,19.38
2023-05-13T10:15:51.293Z,19.45
2023-05-13T10:18:19.040Z,19.48
2023-05-13T10:20:46.882Z,19.48
2023-05-13T10:23:13.536Z,19.51
2023-05-13T10:25:40.995Z,19.44
2023-05-13T10:28:09.669Z,19.62
2023-05-13T10:30:36.468Z,19.70
2023-05-13T10:33:04.170Z,19.64
2023-05-13T10:35:37.063Z,19.80
2023-05-13T10:38:09.249Z,19.88
2023-05-13T10:40:55.566Z,20.06
2023-05-13T10:43:32.741Z,20.02
2023-05-13T10:46:05.719Z,20.04
2023-05-13T10:48:49.794Z,20.05
2023-05-13T10:51:18.122Z,19.93
2023-05-13T10:53:48.571Z,20.05
2023-05-13T10:56:18.594Z,20.02
2023-05-13T10:59:02.364Z,19.97
2023-05-13T11:01:30.981Z,20.21
2023-05-13T11:04:00.459Z,20.21
2023-05-13T11:06:34.722Z,20.27
2023-05-13T11:09:01.672Z,20.21
2023-05-13T11:11:36.621Z,20.33
2023-05-13T11:14:10.285Z,20.50
2023-05-13T11:16:37.842Z,20.44
2023-05-13T11:19:18.180Z,20.49
2023-05-13T11:21:49.677Z,20.51
2023-05-13T11:24:18.810Z,20.62
2023-05-13T11:26:59.309Z,20.53
2023-05-13T11:29:36.413Z,20.63
2023-05-13T11:32:05.125Z,20.65
2023-05-13T11:34:32.900Z,20.61
2023-05-13T11:37:05.161Z,20.63
2023-05-13T11:39:32.882Z,20.54
2023-05-13T11:42:03.972Z,20.56
2023-05-13T11:44:30.904Z,20.88
2023-05-13T11:47:08.301Z,20.65
2023-05-13T11:49:43.092Z,20.85
2023-05-13T11:52:12.022Z,21.19
2023-05-13T11:54:43.042Z,20.98
2023-05-13T11:57:24.296Z,20.78
2023-05-13T12:00:07.028Z,20.05
2023-05-13T12:02:39.812Z,19.64
2023-05-13T12:05:08.902Z,20.23
2023-05-13T12:07:37.485Z,20.37
2023-05-13T12:10:05.393Z,20.17
2023-05-13T12:12:34.716Z,20.56
2023-05-13T12:15:07.056Z,20.45
2023-05-13T12:17:34.221Z,19.98
2023-05-13T12:20:21.293Z,20.01
2023-05-13T12:22:48.173Z,20.65
2023-05-13T12:25:46.858Z,20.95
2023-05-13T12:28:20.134Z,20.89
2023-05-13T12:30:58.564Z,20.55
2023-05-13T12:33:30.376Z,20.34
2023-05-13T12:36:15.604Z,20.12
2023-05-13T12:39:04.473Z,19.88
2023-05-13T12:41:32.639Z,20.37
2023-05-13T12:44:08.242Z,20.17
2023-05-13T12:46:35.317Z,19.81
2023-05-13T12:49:04.323Z,20.20
2023-05-13T12:51:31.139Z,20.52
2023-05-13T12:54:00.886Z,20.64
2023-05-13T12:56:27.558Z,20.71
2023-05-13T12:58:54.431Z,20.80
2023-05-13T13:01:21.699Z,20.96
2023-05-13T13:03:48.411Z,20.86
2023-05-13T13:06:15.585Z,20.94
2023-05-13T13:08:42.406Z,20.85
2023-05-13T13:11:09.245Z,20.84
2023-05-13T13:13:38.769Z,21.09
2023-05-13T13:16:06.160Z,21.23
2023-05-13T13:18:32.750Z,21.39
2023-05-13T13:20:59.210Z,21.45
2023-05-13T13:23:25.760Z,21.35
2023-05-13T13:25:52.386Z,20.86
2023-05-13T13:28:20.089Z,20.28
2023-05-13T13:30:47.222Z,20.06
2023-05-13T13:33:17.308Z,20.46
2023-05-13T13:35:44.891Z,20.75
2023-05-13T13:38:11.543Z,20.81
2023-05-13T13:40:38.030Z,20.86
2023-05-13T13:43:05.782Z,20.92
2023-05-13T13:45:32.315Z,20.98
2023-05-13T13:47:59.395Z,21.00
2023-05-13T13:50:26.468Z,21.05
2023-05-13T13:52:53.230Z,20.78
2023-05-13T13:55:21.206Z,20.03
2023-05-13T13:57:47.903Z,19.95
2023-05-13T14:00:16.010Z,20.15
2023-05-13T14:02:45.674Z,20.43
2023-05-13T14:05:13.502Z,20.70
2023-05-13T14:07:40.053Z,20.60
2023-05-13T14:10:07.583Z,20.47
2023-05-13T14:12:36.268Z,20.41
2023-05-13T14:15:03.278Z,20.37
2023-05-13T14:17:29.807Z,20.28
2023-05-13T14:19:56.370Z,20.34
2023-05-13T14:22:23.978Z,20.49
2023-05-13T14:24:53.494Z,20.51
2023-05-13T14:27:20.826Z,20.41
2023-05-13T14:29:47.909Z,20.55
2023-05-13T14:32:14.685Z,20.58
2023-05-13T14:34:41.270Z,20.51
2023-05-13T14:37:08.020Z,20.40
2023-05-13T14:39:34.499Z,20.33
2023-05-13T14:42:01.424Z,20.18
2023-05-13T14:44:27.899Z,20.17
2023-05-13T14:46:54.766Z,20.21
2023-05-13T14:49:21.292Z,20.21
2023-05-13T14:51:47.803Z,20.18
2023-05-13T14:54:14.330Z,20.17
2023-05-13T14:56:41.495Z,20.11
2023-05-13T14:59:08.229Z,20.08
2023-05-13T15:01:34.946Z,20.09
2023-05-13T15:04:01.690Z,20.09
2023-05-13T15:06:29.131Z,20.08
2023-05-13T15:08:56.389Z,20.04
2023-05-13T15:11:23.251Z,20.07
2023-05-13T15:13:49.786Z,19.97
2023-05-13T15:16:16.282Z,20.07
2023-05-13T15:18:42.976Z,20.02
2023-05-13T15:21:09.564Z,19.94
2023-05-13T15:23:36.126Z,19.89
2023-05-13T15:26:02.654Z,19.92
2023-05-13T15:28:31.797Z,19.91
2023-05-13T15:31:01.088Z,19.83
2023-05-13T15:33:27.672Z,19.79
2023-05-13T16:47:11.089Z,18.94
2023-05-13T16:49:37.564Z,18.91
2023-05-13T16:52:05.085Z,18.91
2023-05-13T16:54:31.864Z,18.93
2023-05-13T16:56:58.683Z,18.89
2023-05-13T16:59:26.801Z,18.87
2023-05-13T17:01:53.769Z,18.85
2023-05-13T17:04:21.223Z,18.86
2023-05-13T17:06:49.294Z,18.86
2023-05-13T17:09:16.170Z,18.82
2023-05-13T17:11:42.711Z,18.77
2023-05-13T17:14:09.189Z,18.76
2023-05-13T17:16:35.940Z,18.74
2023-05-13T17:19:03.215Z,18.71
2023-05-13T17:21:29.896Z,18.65
2023-05-13T17:23:56.495Z,18.64
2023-05-13T17:26:23.178Z,18.61
2023-05-13T17:28:49.805Z,18.55
2023-05-13T17:31:16.759Z,18.46
2023-05-13T17:33:46.949Z,18.38
2023-05-13T17:36:13.601Z,18.40
2023-05-13T17:38:40.052Z,18.40
2023-05-13T17:41:06.585Z,18.33
2023-05-13T17:43:33.099Z,18.29
2023-05-13T17:46:02.416Z,18.29
2023-05-13T17:48:29.071Z,18.25
2023-05-13T17:50:55.858Z,18.25
2023-05-13T17:53:22.313Z,18.22
2023-05-13T17:55:49.323Z,18.12
2023-05-13T17:58:16.478Z,18.02
2023-05-13T18:00:43.261Z,18.00
2023-05-13T18:03:09.897Z,17.89
2023-05-13T18:05:39.835Z,17.81
2023-05-13T18:08:07.419Z,17.73
2023-05-13T18:10:33.932Z,17.68
2023-05-13T18:13:00.398Z,17.63
2023-05-13T18:15:26.844Z,17.55
2023-05-13T18:17:53.435Z,17.52
2023-05-13T18:20:20.194Z,17.53
2023-05-13T18:22:47.071Z,17.57
2023-05-13T18:25:13.575Z,17.55
2023-05-13T18:27:40.057Z,17.45
2023-05-13T18:30:08.984Z,17.35
2023-05-13T18:32:35.600Z,17.30
2023-05-13T18:35:02.116Z,17.25
2023-05-13T18:37:28.667Z,17.19
2023-05-13T18:39:57.116Z,17.06
2023-05-13T18:42:24.229Z,16.91
2023-05-13T18:44:50.710Z,16.80
2023-05-13T18:47:17.768Z,16.74
2023-05-13T18:49:44.284Z,16.72
2023-05-13T18:52:10.774Z,16.74
2023-05-13T18:54:37.445Z,16.79
2023-05-13T18:57:04.182Z,16.78
2023-05-13T18:59:30.815Z,16.75
2023-05-13T19:01:58.470Z,16.75
2023-05-13T19:04:25.391Z,16.76
2023-05-13T19:06:52.099Z,16.80
2023-05-13T19:09:18.632Z,16.71
2023-05-13T19:11:45.116Z,16.63
2023-05-13T19:14:15.049Z,16.60
2023-05-13T19:16:41.572Z,16.62
2023-05-13T19:19:10.936Z,16.61
2023-05-13T19:21:40.484Z,16.61
2023-05-13T19:24:07.006Z,16.59
2023-05-13T19:26:34.683Z,16.52
2023-05-13T19:29:01.512Z,16.43
2023-05-13T19:31:28.038Z,16.31
2023-05-13T19:33:55.027Z,16.34
2023-05-13T19:36:23.696Z,16.34
2023-05-13T19:38:50.258Z,16.35
2023-05-13T19:41:16.716Z,16.33
2023-05-13T19:43:43.279Z,16.26
2023-05-13T19:46:09.827Z,16.21
2023-05-13T19:48:36.350Z,16.05
2023-05-13T19:51:02.870Z,15.90
2023-05-13T19:53:29.329Z,15.77
2023-05-13T19:55:55.960Z,15.48
2023-05-13T19:58:22.457Z,15.52
2023-05-13T20:00:49.007Z,15.47
2023-05-13T20:03:15.777Z,15.42
2023-05-13T20:05:42.442Z,15.39
2023-05-13T20:08:09.002Z,15.43
2023-05-13T20:10:36.660Z,15.53
2023-05-13T20:13:04.838Z,15.35
2023-05-13T20:15:32.122Z,15.12
2023-05-13T20:17:58.757Z,15.16
2023-05-13T20:20:25.533Z,15.00
2023-05-13T20:22:52.184Z,14.98
2023-05-13T20:25:18.736Z,14.93
2023-05-13T20:27:45.377Z,14.86
2023-05-13T20:30:12.610Z,14.72
2023-05-13T20:32:39.182Z,14.61
2023-05-13T20:35:07.530Z,14.54
2023-05-13T20:37:34.375Z,14.40
2023-05-13T20:40:00.998Z,14.47
2023-05-13T20:42:27.447Z,14.59
2023-05-13T20:44:56.998Z,14.64
2023-05-13T20:47:23.495Z,14.68
2023-05-13T20:49:50.108Z,14.66
2023-05-13T20:52:16.698Z,14.60
2023-05-13T20:54:43.276Z,14.42
2023-05-13T20:57:09.732Z,14.31
2023-05-13T20:59:36.269Z,14.15
2023-05-13T21:02:02.876Z,14.18
2023-05-13T21:04:29.502Z,14.00
2023-05-13T21:06:59.845Z,14.13
2023-05-13T21:09:26.297Z,14.26
2023-05-13T21:11:52.757Z,14.24
2023-05-13T21:14:19.253Z,14.22
2023-05-13T21:16:45.714Z,14.16
2023-05-13T21:19:23.080Z,14.17
2023-05-13T21:21:49.902Z,14.17
2023-05-13T21:24:18.262Z,14.20
2023-05-13T21:26:45.472Z,14.14
2023-05-13T21:29:12.082Z,13.92
2023-05-13T21:31:38.619Z,13.89
2023-05-13T21:34:05.179Z,13.91
2023-05-13T21:36:33.228Z,13.64
2023-05-13T21:38:59.688Z,13.46
2023-05-13T21:41:26.809Z,13.40
2023-05-13T21:43:53.299Z,13.39
2023-05-13T21:46:19.760Z,13.26
2023-05-13T21:48:46.826Z,13.24
2023-05-13T21:51:13.499Z,13.29
2023-05-13T21:53:40.014Z,13.25
2023-05-13T21:56:06.695Z,13.19
2023-05-13T21:58:33.247Z,13.24
2023-05-13T22:01:00.276Z,13.29
2023-05-13T22:03:30.293Z,13.13
2023-05-13T22:05:57.012Z,13.09
2023-05-13T22:08:23.601Z,13.21
2023-05-13T22:10:52.718Z,13.17
2023-05-13T22:13:21.408Z,13.21
2023-05-13T22:15:48.857Z,13.13
2023-05-13T22:18:15.677Z,13.02
2023-05-13T22:20:42.544Z,12.97
2023-05-13T22:23:11.572Z,12.78
2023-05-13T22:25:39.987Z,12.84
2023-05-13T22:28:09.939Z,12.77
2023-05-13T22:30:36.427Z,12.91
2023-05-13T22:33:02.953Z,13.08
2023-05-13T22:35:29.568Z,13.07
2023-05-13T22:37:56.014Z,13.19
2023-05-13T22:40:24.983Z,13.26
2023-05-13T22:42:51.591Z,13.03
2023-05-13T22:45:24.869Z,12.80
2023-05-13T22:47:54.013Z,12.58
2023-05-13T22:50:20.631Z,12.50
2023-05-13T22:52:47.279Z,12.73
2023-05-13T22:55:13.759Z,12.82
2023-05-13T22:57:40.469Z,12.68
2023-05-13T23:00:11.606Z,12.77
2023-05-13T23:02:38.198Z,12.77
2023-05-13T23:05:05.156Z,12.82
2023-05-13T23:07:31.619Z,12.67
2023-05-13T23:10:00.807Z,12.44
2023-05-13T23:12:33.423Z,12.28
2023-05-13T23:15:10.368Z,12.16
2023-05-13T23:17:40.799Z,12.15
2023-05-13T23:20:07.945Z,12.20
2023-05-13T23:22:34.455Z,11.92
2023-05-13T23:25:00.944Z,11.95
2023-05-13T23:27:27.419Z,11.79
2023-05-13T23:29:55.542Z,11.85
2023-05-13T23:32:23.878Z,11.78
2023-05-13T23:34:53.753Z,11.70
2023-05-13T23:37:21.849Z,11.79
2023-05-13T23:39:48.365Z,12.04
2023-05-13T23:42:16.618Z,12.21
2023-05-13T23:44:43.091Z,12.38
2023-05-13T23:47:11.627Z,12.40
2023-05-13T23:49:38.153Z,12.37
2023-05-13T23:52:05.082Z,12.09
2023-05-13T23:54:31.555Z,12.27
2023-05-13T23:56:58.104Z,12.07
2023-05-13T23:59:24.530Z,11.96
